Time;durP1;ratioP1;P1;durP2;ratioP2;P2;SDS_P1;SDS_P2;PMS_P1;PMS_P2;Temp;Humidity;BMP_temperature;BMP_pressure;BME280_temperature;BME280_humidity;BME280_pressure;Samples;Min_cycle;Max_cycle;Signal;HPM_P1;HPM_P2
2024/03/19 00:08:24;;;;;;;47.50;22.23;;;;;;;;;;5398927;23;20570;-72
2024/03/19 00:10:52;;;;;;;56.30;26.93;;;;;;;;;;4944618;29;20842;-74
2024/03/19 00:13:18;;;;;;;65.90;27.83;;;;;;;;;;4940369;29;20405;-73
2024/03/19 00:15:50;;;;;;;46.90;22.40;;;;;;;;;;4939783;28;20424;-73
2024/03/19 00:18:17;;;;;;;46.77;23.10;;;;;;;;;;4936691;29;20442;-73
2024/03/19 00:20:43;;;;;;;46.63;21.60;;;;;;;;;;4934231;29;20453;-74
2024/03/19 00:23:09;;;;;;;56.10;23.50;;;;;;;;;;5006703;23;20508;-78
2024/03/19 00:25:35;;;;;;;55.97;21.70;;;;;;;;;;4938871;29;20414;-78
2024/03/19 00:28:01;;;;;;;58.30;23.10;;;;;;;;;;4939386;29;20432;-78
2024/03/19 00:30:27;;;;;;;44.53;22.57;;;;;;;;;;4924339;29;20529;-78
2024/03/19 00:32:53;;;;;;;45.60;20.07;;;;;;;;;;4947293;29;20448;-79
2024/03/19 00:35:19;;;;;;;50.53;20.90;;;;;;;;;;4953664;29;20461;-79
2024/03/19 00:37:45;;;;;;;48.63;23.23;;;;;;;;;;4943029;29;20428;-79
2024/03/19 00:40:11;;;;;;;71.67;24.50;;;;;;;;;;4960443;29;20837;-78
2024/03/19 00:42:38;;;;;;;42.47;20.30;;;;;;;;;;4936298;29;20846;-77
2024/03/19 00:45:04;;;;;;;65.80;26.80;;;;;;;;;;4948457;29;20437;-77
2024/03/19 00:47:30;;;;;;;54.50;25.60;;;;;;;;;;4954676;29;20507;-78
2024/03/19 00:49:56;;;;;;;52.63;25.50;;;;;;;;;;4945875;29;20557;-79
2024/03/19 00:52:22;;;;;;;70.80;29.37;;;;;;;;;;4935276;29;20429;-77
2024/03/19 00:54:48;;;;;;;44.37;22.50;;;;;;;;;;4934253;29;20414;-78
2024/03/19 00:57:16;;;;;;;44.37;21.73;;;;;;;;;;4926906;29;20420;-78
2024/03/19 00:59:42;;;;;;;51.83;24.77;;;;;;;;;;4954410;29;20427;-78
2024/03/19 01:02:08;;;;;;;50.30;24.20;;;;;;;;;;4936867;29;20441;-77
2024/03/19 01:04:34;;;;;;;57.87;24.70;;;;;;;;;;4954337;29;20420;-77
2024/03/19 01:07:00;;;;;;;56.27;26.57;;;;;;;;;;4936975;29;20484;-78
2024/03/19 01:09:27;;;;;;;56.60;25.40;;;;;;;;;;4954275;29;20548;-77
2024/03/19 01:11:53;;;;;;;59.77;26.73;;;;;;;;;;4937167;29;21004;-78
2024/03/19 01:14:20;;;;;;;69.07;30.40;;;;;;;;;;4953919;29;20441;-78
2024/03/19 01:16:46;;;;;;;74.23;34.67;;;;;;;;;;4954139;29;20415;-77
2024/03/19 01:19:12;;;;;;;58.27;25.80;;;;;;;;;;4954306;29;20413;-78
2024/03/19 01:21:37;;;;;;;49.23;24.07;;;;;;;;;;4954244;29;20421;-79
2024/03/19 01:24:03;;;;;;;50.83;24.37;;;;;;;;;;4953006;29;20439;-78
2024/03/19 01:26:29;;;;;;;53.83;24.50;;;;;;;;;;4953844;29;20424;-77
2024/03/19 01:28:55;;;;;;;50.90;22.90;;;;;;;;;;4953899;29;20476;-78
2024/03/19 01:31:22;;;;;;;49.70;25.60;;;;;;;;;;4937294;29;20421;-78
2024/03/19 01:33:48;;;;;;;51.20;24.43;;;;;;;;;;4936969;29;20449;-78
2024/03/19 01:36:14;;;;;;;47.60;24.30;;;;;;;;;;4954017;29;20417;-78
2024/03/19 01:38:40;;;;;;;67.13;29.20;;;;;;;;;;4953893;29;20452;-78
2024/03/19 01:41:06;;;;;;;51.23;24.03;;;;;;;;;;4936711;29;20479;-78
2024/03/19 01:43:33;;;;;;;51.40;23.60;;;;;;;;;;4936838;29;20885;-77
2024/03/19 01:46:04;;;;;;;54.87;25.07;;;;;;;;;;4953879;29;20828;-78
2024/03/19 01:48:31;;;;;;;59.60;25.87;;;;;;;;;;4953935;29;20417;-78
2024/03/19 01:50:57;;;;;;;67.00;28.63;;;;;;;;;;4953978;29;20555;-77
2024/03/19 01:53:23;;;;;;;56.57;24.17;;;;;;;;;;4953632;29;20479;-78
2024/03/19 01:55:49;;;;;;;54.50;23.87;;;;;;;;;;4953515;29;20420;-78
2024/03/19 01:58:15;;;;;;;51.80;24.47;;;;;;;;;;4953758;29;20483;-78
2024/03/19 02:00:40;;;;;;;46.47;22.13;;;;;;;;;;4953856;29;20515;-77
2024/03/19 02:03:06;;;;;;;56.30;25.10;;;;;;;;;;4953737;29;20437;-78
2024/03/19 02:05:32;;;;;;;69.97;27.70;;;;;;;;;;4953694;29;20429;-78
2024/03/19 02:07:58;;;;;;;50.40;22.60;;;;;;;;;;4953774;29;20439;-77
2024/03/19 02:10:25;;;;;;;54.03;23.67;;;;;;;;;;4954202;29;20470;-77
2024/03/19 02:12:51;;;;;;;63.70;26.70;;;;;;;;;;4936503;29;20948;-78
2024/03/19 02:15:17;;;;;;;57.10;24.20;;;;;;;;;;4936783;29;20579;-78
2024/03/19 02:17:43;;;;;;;46.53;22.47;;;;;;;;;;4953627;29;20459;-78
2024/03/19 02:20:12;;;;;;;54.00;23.80;;;;;;;;;;4934960;29;20507;-77
2024/03/19 02:22:40;;;;;;;58.43;27.87;;;;;;;;;;4953761;29;20456;-78
2024/03/19 02:25:07;;;;;;;59.87;27.57;;;;;;;;;;4953571;29;20792;-78
2024/03/19 02:27:33;;;;;;;49.70;22.40;;;;;;;;;;4953343;29;20839;-77
2024/03/19 02:29:58;;;;;;;62.27;28.23;;;;;;;;;;4936351;29;20507;-78
2024/03/19 02:32:24;;;;;;;61.40;29.07;;;;;;;;;;4953591;29;20432;-78
2024/03/19 02:34:50;;;;;;;61.63;25.80;;;;;;;;;;4954308;28;20416;-77
2024/03/19 02:37:16;;;;;;;74.97;33.60;;;;;;;;;;4956539;29;20409;-77
2024/03/19 02:39:44;;;;;;;57.40;27.53;;;;;;;;;;4956864;29;20508;-77
2024/03/19 02:42:10;;;;;;;59.97;25.97;;;;;;;;;;4956733;29;20433;-77
2024/03/19 02:44:36;;;;;;;51.87;26.23;;;;;;;;;;4952654;29;20441;-78
2024/03/19 02:47:02;;;;;;;60.03;30.10;;;;;;;;;;4931484;29;20959;-78
2024/03/19 02:49:28;;;;;;;59.57;29.43;;;;;;;;;;4956193;29;20473;-77
2024/03/19 02:51:54;;;;;;;69.30;31.10;;;;;;;;;;4939282;29;20511;-78
2024/03/19 02:54:20;;;;;;;78.60;32.73;;;;;;;;;;4955428;29;20445;-78
2024/03/19 02:56:45;;;;;;;65.83;29.67;;;;;;;;;;4956160;29;20413;-77
2024/03/19 02:59:11;;;;;;;74.50;30.63;;;;;;;;;;4955792;29;20436;-77
2024/03/19 03:01:38;;;;;;;60.47;26.50;;;;;;;;;;4955577;29;20503;-78
2024/03/19 03:04:04;;;;;;;71.17;29.53;;;;;;;;;;4956350;29;20423;-78
2024/03/19 03:06:30;;;;;;;126.80;38.73;;;;;;;;;;4956187;29;20912;-77
2024/03/19 03:08:56;;;;;;;67.30;29.30;;;;;;;;;;4956489;29;20564;-77
2024/03/19 03:11:22;;;;;;;87.40;33.03;;;;;;;;;;4956568;29;20421;-78
2024/03/19 03:13:48;;;;;;;61.90;30.27;;;;;;;;;;4936518;29;20448;-78
2024/03/19 03:16:14;;;;;;;86.50;35.73;;;;;;;;;;4937046;29;20724;-77
2024/03/19 03:18:40;;;;;;;57.20;26.40;;;;;;;;;;4937105;29;20441;-78
2024/03/19 03:21:07;;;;;;;64.43;29.10;;;;;;;;;;4936850;29;20496;-77
2024/03/19 03:23:34;;;;;;;64.13;27.07;;;;;;;;;;4936517;29;20544;-76
2024/03/19 03:26:00;;;;;;;71.63;26.90;;;;;;;;;;4937107;29;20759;-76
2024/03/19 03:28:26;;;;;;;76.13;31.80;;;;;;;;;;4937119;29;20414;-76
2024/03/19 03:30:52;;;;;;;67.03;29.70;;;;;;;;;;4937901;29;20500;-77
2024/03/19 03:33:18;;;;;;;55.40;23.57;;;;;;;;;;4937085;29;20453;-76
2024/03/19 03:35:44;;;;;;;69.63;30.03;;;;;;;;;;4920016;29;20447;-76
2024/03/19 03:38:10;;;;;;;75.87;31.47;;;;;;;;;;4936685;29;20751;-76
2024/03/19 03:40:36;;;;;;;63.40;26.50;;;;;;;;;;4936816;29;20764;-75
2024/03/19 03:43:02;;;;;;;60.47;26.83;;;;;;;;;;4936857;29;20437;-78
2024/03/19 03:45:28;;;;;;;55.40;24.03;;;;;;;;;;4937675;29;20421;-76
2024/03/19 03:47:54;;;;;;;46.83;22.20;;;;;;;;;;4951250;28;20421;-76
2024/03/19 03:50:20;;;;;;;52.53;23.40;;;;;;;;;;4955335;29;20571;-76
2024/03/19 03:52:46;;;;;;;47.73;20.27;;;;;;;;;;4938883;29;20851;-76
2024/03/19 03:55:12;;;;;;;48.20;23.00;;;;;;;;;;4956305;29;20771;-75
2024/03/19 03:57:40;;;;;;;39.27;20.70;;;;;;;;;;4956586;29;20491;-76
2024/03/19 04:00:10;;;;;;;49.60;19.87;;;;;;;;;;4955642;29;20416;-76
2024/03/19 04:02:38;;;;;;;51.77;24.80;;;;;;;;;;4955200;29;20460;-76
2024/03/19 04:05:04;;;;;;;55.60;24.90;;;;;;;;;;4938282;29;20777;-76
2024/03/19 04:07:30;;;;;;;45.00;21.83;;;;;;;;;;4937931;29;20520;-77
2024/03/19 04:09:56;;;;;;;49.77;23.20;;;;;;;;;;4942212;29;20938;-77
2024/03/19 04:12:22;;;;;;;49.17;23.27;;;;;;;;;;4936156;29;20440;-76
2024/03/19 04:14:48;;;;;;;50.57;23.20;;;;;;;;;;4936609;29;20996;-76
2024/03/19 04:17:16;;;;;;;52.63;23.77;;;;;;;;;;4936078;29;20406;-76
2024/03/19 04:19:43;;;;;;;47.73;20.20;;;;;;;;;;4935719;29;20838;-76
2024/03/19 04:22:09;;;;;;;59.77;23.30;;;;;;;;;;4948999;28;20503;-79
2024/03/19 04:24:35;;;;;;;41.13;19.80;;;;;;;;;;4942047;29;20436;-79
2024/03/19 04:27:01;;;;;;;51.90;22.00;;;;;;;;;;4942967;29;20428;-79
2024/03/19 04:29:27;;;;;;;50.63;21.60;;;;;;;;;;4959024;29;20469;-79
2024/03/19 04:31:53;;;;;;;50.13;22.23;;;;;;;;;;4958185;29;20417;-79
2024/03/19 04:34:18;;;;;;;45.93;18.47;;;;;;;;;;4925266;29;20432;-80
2024/03/19 04:36:44;;;;;;;44.53;20.83;;;;;;;;;;4941114;29;20414;-79
2024/03/19 04:39:14;;;;;;;55.30;22.03;;;;;;;;;;4936834;29;20496;-77
2024/03/19 04:41:40;;;;;;;48.97;22.10;;;;;;;;;;4918872;29;20880;-77
2024/03/19 04:44:07;;;;;;;40.43;18.93;;;;;;;;;;4937604;29;20575;-77
2024/03/19 04:46:33;;;;;;;48.80;20.90;;;;;;;;;;4947643;29;20425;-77
2024/03/19 04:48:59;;;;;;;39.00;20.17;;;;;;;;;;4951868;29;20794;-77
2024/03/19 04:51:25;;;;;;;44.80;20.60;;;;;;;;;;4953536;29;20499;-76
2024/03/19 04:53:51;;;;;;;44.07;21.00;;;;;;;;;;4937141;29;20437;-77
2024/03/19 04:56:17;;;;;;;52.30;22.10;;;;;;;;;;4953089;29;20409;-76
2024/03/19 04:58:43;;;;;;;54.47;23.30;;;;;;;;;;4953495;28;20423;-78
2024/03/19 05:01:13;;;;;;;49.47;20.90;;;;;;;;;;4952282;29;20428;-77
2024/03/19 05:03:39;;;;;;;53.70;20.20;;;;;;;;;;4954259;29;20459;-77
2024/03/19 05:06:05;;;;;;;42.03;20.10;;;;;;;;;;4954053;29;20955;-77
2024/03/19 05:08:31;;;;;;;45.50;20.53;;;;;;;;;;4954236;29;20500;-77
2024/03/19 05:10:57;;;;;;;46.77;20.87;;;;;;;;;;4931920;29;20509;-76
2024/03/19 05:13:23;;;;;;;41.27;19.33;;;;;;;;;;4935105;29;20951;-77
2024/03/19 05:15:49;;;;;;;37.17;18.77;;;;;;;;;;4935431;29;20409;-77
2024/03/19 05:18:15;;;;;;;39.20;19.10;;;;;;;;;;4949246;29;20905;-76
2024/03/19 05:20:41;;;;;;;35.30;18.17;;;;;;;;;;4937383;29;20422;-77
2024/03/19 05:23:07;;;;;;;34.03;18.20;;;;;;;;;;4942033;29;20464;-77
2024/03/19 05:25:33;;;;;;;41.23;18.40;;;;;;;;;;4934894;29;20468;-77
2024/03/19 05:27:58;;;;;;;41.20;19.97;;;;;;;;;;4935993;29;20457;-76
2024/03/19 05:30:26;;;;;;;40.63;18.40;;;;;;;;;;4919146;29;20469;-79
2024/03/19 05:32:52;;;;;;;44.63;20.30;;;;;;;;;;4940679;29;20484;-77
2024/03/19 05:35:18;;;;;;;49.33;21.67;;;;;;;;;;4953916;29;20432;-77
2024/03/19 05:37:44;;;;;;;46.97;22.10;;;;;;;;;;4953335;29;20417;-77
2024/03/19 05:40:12;;;;;;;41.00;19.30;;;;;;;;;;4936729;29;20452;-77
2024/03/19 05:42:38;;;;;;;63.53;19.43;;;;;;;;;;4953861;29;20437;-77
2024/03/19 05:45:04;;;;;;;43.13;20.80;;;;;;;;;;4952055;29;20416;-77
2024/03/19 05:47:31;;;;;;;52.53;22.07;;;;;;;;;;4934870;29;20505;-77
2024/03/19 05:49:57;;;;;;;44.00;19.07;;;;;;;;;;4935662;29;20469;-77
2024/03/19 05:52:24;;;;;;;41.33;19.93;;;;;;;;;;4917389;29;20473;-77
2024/03/19 05:54:50;;;;;;;47.97;21.03;;;;;;;;;;4934531;29;20856;-77
2024/03/19 05:57:16;;;;;;;44.03;20.53;;;;;;;;;;4934513;29;20477;-77
2024/03/19 05:59:43;;;;;;;39.07;19.67;;;;;;;;;;4934697;29;20430;-78
2024/03/19 06:02:09;;;;;;;37.10;17.90;;;;;;;;;;4936550;29;20851;-78
2024/03/19 06:04:35;;;;;;;33.07;17.43;;;;;;;;;;4917865;29;20454;-77
2024/03/19 06:07:01;;;;;;;44.10;19.07;;;;;;;;;;4934791;29;20456;-77
2024/03/19 06:09:29;;;;;;;41.17;19.47;;;;;;;;;;4948571;28;20464;-78
2024/03/19 06:11:55;;;;;;;36.00;17.50;;;;;;;;;;4939815;29;20932;-77
2024/03/19 06:14:21;;;;;;;47.37;22.00;;;;;;;;;;4957540;29;20464;-77
2024/03/19 06:16:47;;;;;;;42.93;20.53;;;;;;;;;;4957986;29;20409;-78
2024/03/19 06:19:14;;;;;;;39.33;19.20;;;;;;;;;;4941474;29;20421;-78
2024/03/19 06:21:40;;;;;;;34.47;17.70;;;;;;;;;;4959032;29;20412;-78
2024/03/19 06:24:06;;;;;;;53.53;22.10;;;;;;;;;;4952055;28;20484;-77
2024/03/19 06:26:33;;;;;;;40.77;18.83;;;;;;;;;;4922482;29;20421;-77
2024/03/19 06:28:59;;;;;;;40.93;21.90;;;;;;;;;;4938539;29;20445;-77
2024/03/19 06:31:25;;;;;;;38.93;18.13;;;;;;;;;;4938185;29;20987;-77
2024/03/19 06:33:51;;;;;;;38.93;18.23;;;;;;;;;;4937984;29;20500;-77
2024/03/19 06:36:17;;;;;;;39.73;18.97;;;;;;;;;;4922038;29;20508;-76
2024/03/19 06:38:43;;;;;;;46.10;20.87;;;;;;;;;;4937824;29;20916;-77
2024/03/19 06:41:09;;;;;;;41.40;19.33;;;;;;;;;;4937083;29;20434;-76
2024/03/19 06:43:36;;;;;;;53.80;23.77;;;;;;;;;;4937764;29;20429;-76
2024/03/19 06:46:02;;;;;;;64.57;25.20;;;;;;;;;;4941556;29;20957;-76
2024/03/19 06:48:28;;;;;;;51.30;22.40;;;;;;;;;;4951641;29;20435;-76
2024/03/19 06:50:54;;;;;;;40.50;18.67;;;;;;;;;;4960869;29;20452;-76
2024/03/19 06:53:21;;;;;;;32.80;16.93;;;;;;;;;;4959113;29;20439;-76
2024/03/19 06:55:48;;;;;;;41.67;18.27;;;;;;;;;;4955417;29;20489;-77
2024/03/19 06:58:14;;;;;;;32.50;15.63;;;;;;;;;;4955924;29;20515;-76
2024/03/19 07:00:40;;;;;;;26.53;13.20;;;;;;;;;;4950922;29;20480;-76
2024/03/19 07:03:06;;;;;;;21.83;12.67;;;;;;;;;;4940930;29;20868;-76
2024/03/19 07:05:33;;;;;;;30.13;12.03;;;;;;;;;;4938128;29;20464;-75
2024/03/19 07:07:59;;;;;;;28.83;12.60;;;;;;;;;;4956083;29;20424;-81
2024/03/19 07:10:27;;;;;;;24.93;11.87;;;;;;;;;;4957273;29;20469;-75
2024/03/19 07:12:53;;;;;;;16.30;10.60;;;;;;;;;;4956080;29;20476;-74
2024/03/19 07:15:19;;;;;;;21.10;11.30;;;;;;;;;;4937629;29;20425;-75
2024/03/19 07:17:52;;;;;;;20.90;11.53;;;;;;;;;;4940281;29;20413;-75
2024/03/19 07:20:18;;;;;;;22.53;11.10;;;;;;;;;;4930970;29;20492;-74
2024/03/19 07:22:44;;;;;;;18.40;10.03;;;;;;;;;;4946437;28;20457;-75
2024/03/19 07:25:10;;;;;;;17.97;10.30;;;;;;;;;;4937849;29;20513;-77
2024/03/19 07:27:40;;;;;;;16.50;10.00;;;;;;;;;;4950138;29;20487;-73
2024/03/19 07:30:06;;;;;;;17.00;9.97;;;;;;;;;;4954741;29;20492;-74
2024/03/19 07:32:33;;;;;;;18.47;8.87;;;;;;;;;;4940962;29;20450;-74
2024/03/19 07:34:59;;;;;;;17.93;9.80;;;;;;;;;;4923981;29;20451;-75
2024/03/19 07:37:25;;;;;;;14.53;8.27;;;;;;;;;;4945757;29;20426;-76
2024/03/19 07:39:55;;;;;;;12.00;7.93;;;;;;;;;;4936424;29;20456;-75
2024/03/19 07:42:21;;;;;;;12.10;8.27;;;;;;;;;;4948526;29;20653;-74
2024/03/19 07:44:47;;;;;;;16.97;7.00;;;;;;;;;;4938431;29;20425;-74
2024/03/19 07:47:13;;;;;;;12.77;7.73;;;;;;;;;;4936050;29;20778;-74
2024/03/19 07:49:39;;;;;;;12.17;7.10;;;;;;;;;;4936716;29;20473;-74
2024/03/19 07:52:05;;;;;;;18.27;8.50;;;;;;;;;;4946639;29;20485;-74
2024/03/19 07:54:31;;;;;;;11.93;7.60;;;;;;;;;;4919131;29;20796;-73
2024/03/19 07:56:57;;;;;;;16.53;8.73;;;;;;;;;;4942886;29;21012;-74
2024/03/19 07:59:23;;;;;;;11.40;7.40;;;;;;;;;;4953737;29;20485;-78
2024/03/19 08:01:50;;;;;;;18.60;8.17;;;;;;;;;;4938567;29;20472;-74
2024/03/19 08:04:16;;;;;;;12.07;7.50;;;;;;;;;;4936239;29;20428;-74
2024/03/19 08:06:44;;;;;;;12.40;8.20;;;;;;;;;;4935695;29;20414;-72
2024/03/19 08:09:10;;;;;;;15.80;8.40;;;;;;;;;;4935937;29;20417;-73
2024/03/19 08:11:36;;;;;;;19.67;8.20;;;;;;;;;;4937480;29;20445;-76
2024/03/19 08:14:01;;;;;;;14.67;7.47;;;;;;;;;;4949527;29;20477;-74
2024/03/19 08:16:27;;;;;;;15.50;7.23;;;;;;;;;;4942316;29;20450;-74
2024/03/19 08:18:54;;;;;;;14.20;7.53;;;;;;;;;;4953515;29;20500;-76
2024/03/19 08:21:23;;;;;;;16.70;8.20;;;;;;;;;;4954745;29;20416;-76
2024/03/19 08:23:49;;;;;;;15.97;7.17;;;;;;;;;;4953210;29;20486;-75
2024/03/19 08:26:15;;;;;;;13.00;7.80;;;;;;;;;;4949048;29;20901;-72
2024/03/19 08:28:41;;;;;;;12.90;6.70;;;;;;;;;;4954083;29;20888;-73
2024/03/19 08:31:09;;;;;;;11.67;6.57;;;;;;;;;;4954423;29;20568;-73
2024/03/19 08:33:36;;;;;;;9.30;6.43;;;;;;;;;;4938406;28;20444;-73
2024/03/19 08:36:02;;;;;;;9.43;6.57;;;;;;;;;;4934764;29;20406;-73
2024/03/19 08:38:27;;;;;;;12.33;6.00;;;;;;;;;;4934711;29;20977;-73
2024/03/19 08:40:54;;;;;;;13.33;6.93;;;;;;;;;;4929515;29;20921;-72
2024/03/19 08:43:20;;;;;;;10.73;6.33;;;;;;;;;;4954419;29;20491;-73
2024/03/19 08:45:47;;;;;;;15.57;8.37;;;;;;;;;;4945459;29;20452;-73
2024/03/19 08:48:13;;;;;;;11.07;6.03;;;;;;;;;;4953306;29;20420;-74
2024/03/19 08:50:39;;;;;;;13.17;6.00;;;;;;;;;;4950352;29;20567;-74
2024/03/19 08:53:05;;;;;;;10.67;6.17;;;;;;;;;;4952239;29;20445;-80
2024/03/19 08:55:31;;;;;;;10.80;7.50;;;;;;;;;;4954629;29;20409;-76
2024/03/19 08:57:57;;;;;;;8.87;5.43;;;;;;;;;;4950028;29;20464;-75
2024/03/19 09:00:23;;;;;;;15.10;5.93;;;;;;;;;;4953016;29;20432;-76
2024/03/19 09:02:49;;;;;;;12.57;6.30;;;;;;;;;;4952776;29;20951;-76
2024/03/19 09:05:15;;;;;;;11.20;6.47;;;;;;;;;;4950531;28;20425;-75
2024/03/19 09:07:41;;;;;;;9.80;5.93;;;;;;;;;;4952954;29;20429;-77
2024/03/19 09:10:09;;;;;;;11.83;6.90;;;;;;;;;;4953373;29;20468;-77
2024/03/19 09:12:35;;;;;;;11.57;7.33;;;;;;;;;;4954038;29;20444;-77
2024/03/19 09:15:01;;;;;;;11.20;6.87;;;;;;;;;;4953662;29;20427;-76
2024/03/19 09:17:27;;;;;;;13.50;6.73;;;;;;;;;;4953444;29;20450;-77
2024/03/19 09:19:53;;;;;;;11.77;6.90;;;;;;;;;;4953806;29;20518;-76
2024/03/19 09:22:19;;;;;;;9.63;6.73;;;;;;;;;;4919409;29;20460;-77
2024/03/19 09:24:45;;;;;;;10.37;6.30;;;;;;;;;;4938086;29;20436;-77
2024/03/19 09:27:14;;;;;;;18.70;6.27;;;;;;;;;;4946448;29;20429;-76
2024/03/19 09:29:40;;;;;;;11.03;6.20;;;;;;;;;;4937269;29;20528;-75
2024/03/19 09:32:06;;;;;;;12.70;6.90;;;;;;;;;;4950373;29;20465;-76
2024/03/19 09:34:32;;;;;;;11.07;7.23;;;;;;;;;;4936118;29;20442;-76
2024/03/19 09:36:58;;;;;;;11.90;6.70;;;;;;;;;;4936906;29;20796;-75
2024/03/19 09:39:24;;;;;;;10.77;6.03;;;;;;;;;;4930399;29;20417;-77
2024/03/19 09:42:05;;;;;;;9.00;6.60;;;;;;;;;;4933674;29;20417;-76
2024/03/19 09:44:32;;;;;;;11.60;5.63;;;;;;;;;;4944637;28;20424;-76
2024/03/19 09:46:59;;;;;;;6.80;4.97;;;;;;;;;;4926634;29;20425;-78
2024/03/19 09:49:32;;;;;;;10.43;6.60;;;;;;;;;;4944591;29;20873;-76
2024/03/19 09:51:58;;;;;;;8.40;6.00;;;;;;;;;;4952059;29;20437;-77
2024/03/19 09:54:25;;;;;;;13.97;6.77;;;;;;;;;;4933545;29;20421;-78
2024/03/19 09:56:52;;;;;;;14.47;5.90;;;;;;;;;;4935190;29;20981;-76
2024/03/19 09:59:18;;;;;;;11.10;5.90;;;;;;;;;;4940961;29;20500;-77
2024/03/19 10:01:44;;;;;;;15.30;6.10;;;;;;;;;;4938592;29;20509;-76
2024/03/19 10:04:13;;;;;;;13.33;5.17;;;;;;;;;;4941249;29;20417;-76
2024/03/19 10:06:39;;;;;;;7.60;5.10;;;;;;;;;;4942142;29;20452;-72
2024/03/19 10:09:06;;;;;;;11.07;5.83;;;;;;;;;;4957745;29;20916;-73
2024/03/19 10:11:34;;;;;;;8.27;5.70;;;;;;;;;;4939354;29;20479;-72
2024/03/19 10:14:00;;;;;;;6.67;3.90;;;;;;;;;;4937891;29;20789;-74
2024/03/19 10:16:25;;;;;;;6.80;4.30;;;;;;;;;;4937701;29;20416;-74
2024/03/19 10:18:51;;;;;;;13.30;4.97;;;;;;;;;;4946585;29;20920;-75
2024/03/19 10:21:17;;;;;;;5.60;3.10;;;;;;;;;;4956689;29;20934;-74
2024/03/19 10:23:43;;;;;;;4.30;3.33;;;;;;;;;;4956289;28;20828;-76
2024/03/19 10:26:09;;;;;;;5.90;3.20;;;;;;;;;;4941095;29;20961;-74
2024/03/19 10:28:38;;;;;;;5.70;3.30;;;;;;;;;;4940923;29;20455;-75
2024/03/19 10:31:05;;;;;;;6.63;3.00;;;;;;;;;;4945775;29;20472;-76
2024/03/19 10:33:35;;;;;;;4.13;3.40;;;;;;;;;;4941172;29;20516;-76
2024/03/19 10:36:03;;;;;;;3.50;2.73;;;;;;;;;;4937214;29;20425;-76
2024/03/19 10:38:29;;;;;;;4.97;2.90;;;;;;;;;;4937383;29;20484;-75
2024/03/19 10:40:59;;;;;;;8.27;3.10;;;;;;;;;;4937615;29;20936;-75
2024/03/19 10:43:27;;;;;;;4.07;2.30;;;;;;;;;;4937988;29;20456;-77
2024/03/19 10:45:53;;;;;;;4.90;3.43;;;;;;;;;;4939528;29;20965;-77
2024/03/19 10:48:20;;;;;;;6.63;3.87;;;;;;;;;;4939510;29;20414;-76
2024/03/19 10:50:49;;;;;;;6.30;3.50;;;;;;;;;;4947960;29;20476;-76
2024/03/19 10:53:19;;;;;;;5.70;2.67;;;;;;;;;;4937380;29;20434;-75
2024/03/19 10:55:47;;;;;;;4.07;3.20;;;;;;;;;;4923728;28;20421;-74
2024/03/19 10:58:15;;;;;;;3.33;3.00;;;;;;;;;;4955601;29;20425;-75
2024/03/19 11:00:43;;;;;;;3.20;2.67;;;;;;;;;;4955481;29;20420;-74
2024/03/19 11:03:16;;;;;;;4.20;3.13;;;;;;;;;;4956121;29;20440;-74
2024/03/19 11:05:46;;;;;;;12.43;3.20;;;;;;;;;;4941595;29;20429;-74
2024/03/19 11:08:15;;;;;;;4.17;3.27;;;;;;;;;;4939094;29;20535;-75
2024/03/19 11:10:41;;;;;;;4.60;3.13;;;;;;;;;;4955386;29;20478;-74
2024/03/19 11:13:08;;;;;;;6.03;3.73;;;;;;;;;;4955266;29;20441;-73
2024/03/19 11:15:35;;;;;;;8.73;3.40;;;;;;;;;;4956387;29;20419;-74
2024/03/19 11:18:20;;;;;;;4.77;3.30;;;;;;;;;;4938575;29;20917;-74
2024/03/19 11:20:53;;;;;;;5.13;2.83;;;;;;;;;;4946400;29;20449;-74
2024/03/19 11:23:20;;;;;;;6.10;3.40;;;;;;;;;;4951994;29;20464;-74
2024/03/19 11:25:49;;;;;;;6.90;3.40;;;;;;;;;;4954339;29;20524;-74
2024/03/19 11:28:25;;;;;;;6.27;3.30;;;;;;;;;;4955245;29;20870;-75
2024/03/19 11:30:58;;;;;;;8.10;3.77;;;;;;;;;;4954426;29;20551;-75
2024/03/19 11:33:24;;;;;;;5.07;3.37;;;;;;;;;;4954946;29;20435;-75
2024/03/19 11:35:51;;;;;;;5.67;3.90;;;;;;;;;;4955197;29;20404;-75
2024/03/19 11:38:18;;;;;;;14.73;6.20;;;;;;;;;;4955331;29;20503;-68
2024/03/19 11:40:44;;;;;;;14.40;6.20;;;;;;;;;;4954947;29;20938;-68
2024/03/19 11:43:14;;;;;;;15.83;5.67;;;;;;;;;;4948992;29;20487;-70
2024/03/19 11:45:40;;;;;;;15.70;7.10;;;;;;;;;;4954686;29;20424;-69
2024/03/19 11:48:06;;;;;;;8.53;4.90;;;;;;;;;;4954797;29;20471;-68
2024/03/19 11:50:32;;;;;;;3.60;2.80;;;;;;;;;;4954609;29;20472;-69
2024/03/19 11:52:59;;;;;;;15.23;6.77;;;;;;;;;;4954691;28;20445;-69
2024/03/19 11:55:25;;;;;;;6.30;3.47;;;;;;;;;;4937531;29;20460;-68
2024/03/19 11:57:52;;;;;;;6.73;3.63;;;;;;;;;;4937174;29;20416;-69
2024/03/19 12:00:19;;;;;;;8.30;4.23;;;;;;;;;;4954362;29;20916;-69
2024/03/19 12:02:45;;;;;;;8.03;5.83;;;;;;;;;;4954341;29;20444;-69
2024/03/19 12:05:12;;;;;;;6.00;2.97;;;;;;;;;;4955039;28;20944;-69
2024/03/19 12:07:38;;;;;;;5.20;3.67;;;;;;;;;;4954221;28;20428;-70
2024/03/19 12:10:11;;;;;;;9.00;3.23;;;;;;;;;;4955419;29;20475;-69
2024/03/19 12:12:39;;;;;;;7.97;4.70;;;;;;;;;;4954241;29;20500;-69
2024/03/19 12:15:07;;;;;;;5.20;3.00;;;;;;;;;;4947038;29;20467;-70
2024/03/19 12:17:33;;;;;;;6.47;3.23;;;;;;;;;;4937079;29;20428;-68
2024/03/19 12:20:03;;;;;;;11.40;5.23;;;;;;;;;;4953385;28;20432;-70
2024/03/19 12:22:29;;;;;;;5.00;3.20;;;;;;;;;;4954032;29;20584;-71
2024/03/19 12:24:56;;;;;;;5.73;3.50;;;;;;;;;;4954111;29;20503;-70
2024/03/19 12:27:22;;;;;;;5.50;3.60;;;;;;;;;;4952606;29;20428;-70
2024/03/19 12:29:48;;;;;;;4.63;2.90;;;;;;;;;;4935983;29;20477;-69
2024/03/19 12:32:15;;;;;;;9.30;5.63;;;;;;;;;;4952911;29;20876;-71
2024/03/19 12:37:11;;;;;;;7.27;4.70;;;;;;;;;;4953359;28;20912;-70
2024/03/19 12:39:37;;;;;;;5.00;3.60;;;;;;;;;;4935895;29;20444;-71
2024/03/19 12:42:23;;;;;;;8.03;4.07;;;;;;;;;;4953803;29;20448;-70
2024/03/19 12:44:50;;;;;;;8.23;4.20;;;;;;;;;;4953970;29;20850;-70
2024/03/19 12:47:16;;;;;;;6.00;3.80;;;;;;;;;;4950150;29;20433;-71
2024/03/19 12:49:42;;;;;;;5.77;4.10;;;;;;;;;;4948323;29;20940;-74
2024/03/19 12:52:09;;;;;;;12.50;4.20;;;;;;;;;;4945314;29;20603;-75
2024/03/19 12:54:35;;;;;;;5.77;4.10;;;;;;;;;;4927406;29;20475;-76
2024/03/19 12:57:04;;;;;;;6.70;3.90;;;;;;;;;;4947181;29;20430;-77
2024/03/19 12:59:31;;;;;;;9.13;4.40;;;;;;;;;;4950954;29;20431;-75
2024/03/19 13:01:57;;;;;;;5.53;3.67;;;;;;;;;;4951954;29;20416;-74
2024/03/19 13:04:23;;;;;;;5.63;3.30;;;;;;;;;;4936505;29;20909;-74
2024/03/19 13:06:49;;;;;;;5.13;3.80;;;;;;;;;;4953165;29;20424;-75
2024/03/19 13:09:15;;;;;;;7.77;4.20;;;;;;;;;;4953057;28;20439;-74
2024/03/19 13:11:41;;;;;;;5.73;4.10;;;;;;;;;;4935295;29;20476;-74
2024/03/19 13:14:07;;;;;;;5.67;3.57;;;;;;;;;;4953482;29;20417;-74
2024/03/19 13:16:33;;;;;;;6.10;4.20;;;;;;;;;;4953244;29;20432;-74
2024/03/19 13:18:59;;;;;;;10.23;3.40;;;;;;;;;;4953309;29;20821;-74
2024/03/19 13:21:25;;;;;;;3.30;2.63;;;;;;;;;;4953221;29;20424;-74
2024/03/19 13:23:51;;;;;;;6.27;3.53;;;;;;;;;;4953095;29;20515;-75
2024/03/19 13:26:17;;;;;;;8.03;3.80;;;;;;;;;;4953186;29;20427;-75
2024/03/19 13:28:44;;;;;;;9.50;4.17;;;;;;;;;;4953684;29;20507;-74
2024/03/19 13:31:10;;;;;;;8.53;3.90;;;;;;;;;;4936118;29;20571;-74
2024/03/19 13:33:35;;;;;;;8.23;4.20;;;;;;;;;;4953142;29;20774;-74
2024/03/19 13:36:01;;;;;;;7.33;3.70;;;;;;;;;;4953055;29;20412;-75
2024/03/19 13:38:28;;;;;;;6.73;4.27;;;;;;;;;;4952949;29;20413;-74
2024/03/19 13:40:54;;;;;;;7.63;4.10;;;;;;;;;;4953655;29;20472;-74
2024/03/19 13:43:20;;;;;;;8.30;4.17;;;;;;;;;;4952518;29;20520;-74
2024/03/19 13:45:46;;;;;;;12.93;4.67;;;;;;;;;;4952929;29;20515;-74
2024/03/19 13:48:12;;;;;;;5.73;4.43;;;;;;;;;;4948544;29;20429;-75
2024/03/19 13:50:38;;;;;;;9.03;4.73;;;;;;;;;;4952247;29;20476;-74
2024/03/19 13:53:04;;;;;;;7.10;4.10;;;;;;;;;;4952804;28;20528;-74
2024/03/19 13:55:31;;;;;;;6.50;4.03;;;;;;;;;;4952984;28;20476;-74
2024/03/19 13:57:58;;;;;;;12.77;4.13;;;;;;;;;;4952907;29;20424;-75
2024/03/19 14:00:24;;;;;;;8.13;3.90;;;;;;;;;;4953033;29;20431;-74
2024/03/19 14:02:53;;;;;;;6.30;3.37;;;;;;;;;;4953067;29;20523;-74
2024/03/19 14:05:19;;;;;;;4.70;3.20;;;;;;;;;;4952941;29;20452;-74
2024/03/19 14:07:45;;;;;;;6.33;3.20;;;;;;;;;;4952593;29;20516;-74
2024/03/19 14:10:11;;;;;;;4.17;2.90;;;;;;;;;;4952626;29;21063;-75
2024/03/19 14:12:38;;;;;;;5.60;3.07;;;;;;;;;;4952827;29;20469;-74
2024/03/19 14:15:04;;;;;;;4.93;2.33;;;;;;;;;;4936035;29;20509;-74
2024/03/19 14:17:30;;;;;;;5.00;3.00;;;;;;;;;;4952416;29;20512;-75
2024/03/19 14:19:56;;;;;;;5.13;2.93;;;;;;;;;;4952730;29;20453;-75
2024/03/19 14:22:22;;;;;;;6.93;3.10;;;;;;;;;;4952355;29;20475;-74
2024/03/19 14:24:49;;;;;;;8.13;3.20;;;;;;;;;;4952869;29;20427;-74
2024/03/19 14:27:15;;;;;;;7.93;3.17;;;;;;;;;;4952395;29;20515;-74
2024/03/19 14:29:41;;;;;;;7.60;2.60;;;;;;;;;;4952327;29;20523;-74
2024/03/19 14:32:10;;;;;;;4.00;2.80;;;;;;;;;;4954858;28;20429;-75